Time;durP1;ratioP1;P1;durP2;ratioP2;P2;SDS_P1;SDS_P2;PMS_P1;PMS_P2;Temp;Humidity;BMP_temperature;BMP_pressure;BME280_temperature;BME280_humidity;BME280_pressure;Samples;Min_cycle;Max_cycle;Signal;HPM_P1;HPM_P2
2021/01/31 00:02:15;;;;;;;10.60;9.50;;;5.20;99.90;;;;;;5072318;28;20428;-67
2021/01/31 00:04:47;;;;;;;10.90;9.25;;;5.10;99.90;;;;;;5071539;28;20024;-67
2021/01/31 00:07:16;;;;;;;10.40;9.30;;;5.20;99.90;;;;;;5062705;28;20425;-68
2021/01/31 00:09:43;;;;;;;10.43;9.23;;;5.20;99.90;;;;;;5051679;28;20029;-67
2021/01/31 00:12:10;;;;;;;9.68;8.55;;;5.20;99.90;;;;;;5051637;28;20031;-67
2021/01/31 00:14:36;;;;;;;10.20;9.02;;;5.10;99.90;;;;;;5051471;28;20501;-67
2021/01/31 00:17:02;;;;;;;10.15;8.57;;;5.00;99.90;;;;;;5051793;28;20029;-68
2021/01/31 00:19:27;;;;;;;8.73;7.85;;;5.00;99.90;;;;;;5051781;28;20467;-67
2021/01/31 00:22:02;;;;;;;9.38;8.48;;;5.00;99.90;;;;;;5051564;28;20064;-68
2021/01/31 00:24:29;;;;;;;9.00;8.10;;;5.00;99.90;;;;;;5050870;28;20033;-67
2021/01/31 00:26:55;;;;;;;8.65;7.80;;;5.00;99.90;;;;;;5052549;28;20087;-67
2021/01/31 00:29:21;;;;;;;8.65;7.80;;;4.90;99.90;;;;;;5052038;28;20116;-67
2021/01/31 00:31:47;;;;;;;8.93;8.02;;;5.00;99.90;;;;;;5071479;28;20134;-67
2021/01/31 00:34:15;;;;;;;8.02;7.22;;;5.00;99.90;;;;;;5070699;28;20025;-67
2021/01/31 00:36:41;;;;;;;8.30;7.50;;;4.90;99.90;;;;;;5071840;28;20020;-67
2021/01/31 00:39:08;;;;;;;7.35;6.65;;;4.90;99.90;;;;;;5072074;28;20081;-67
2021/01/31 00:41:34;;;;;;;7.55;6.85;;;4.80;99.90;;;;;;5071795;28;20494;-67
2021/01/31 00:44:01;;;;;;;6.97;6.15;;;4.80;99.90;;;;;;5071145;28;20040;-67
2021/01/31 00:46:26;;;;;;;6.80;6.15;;;4.70;99.90;;;;;;5071729;28;20029;-66
2021/01/31 00:48:52;;;;;;;7.30;6.60;;;4.60;99.90;;;;;;5071653;28;20089;-66
2021/01/31 00:51:18;;;;;;;7.10;6.38;;;4.60;99.90;;;;;;5071481;28;20024;-67
2021/01/31 00:53:43;;;;;;;6.35;5.78;;;4.50;99.90;;;;;;5071246;28;20063;-68
2021/01/31 00:56:09;;;;;;;6.78;6.15;;;4.50;99.90;;;;;;5071785;28;20101;-67
2021/01/31 00:58:34;;;;;;;7.22;6.60;;;4.60;99.90;;;;;;5071786;28;20051;-68
2021/01/31 01:01:00;;;;;;;7.20;6.50;;;4.60;99.90;;;;;;5071656;28;20063;-67
2021/01/31 01:03:26;;;;;;;6.90;6.20;;;4.50;99.90;;;;;;5070959;28;20029;-66
2021/01/31 01:05:51;;;;;;;6.60;6.00;;;4.60;99.90;;;;;;5071188;28;20343;-66
2021/01/31 01:08:17;;;;;;;6.45;5.95;;;4.60;99.90;;;;;;5071756;28;20028;-67
2021/01/31 01:10:43;;;;;;;6.03;5.47;;;4.40;99.90;;;;;;5071430;28;20024;-68
2021/01/31 01:13:08;;;;;;;5.95;5.45;;;4.50;99.90;;;;;;5070447;28;20386;-66
2021/01/31 01:15:34;;;;;;;6.43;5.82;;;4.50;99.90;;;;;;5070605;28;20098;-67
2021/01/31 01:18:00;;;;;;;6.43;5.82;;;4.40;99.90;;;;;;5070984;28;20223;-67
2021/01/31 01:20:26;;;;;;;5.97;5.47;;;4.40;99.90;;;;;;5070887;28;20025;-67
2021/01/31 01:22:53;;;;;;;5.95;5.45;;;4.40;99.90;;;;;;5071121;28;20036;-67
2021/01/31 01:25:20;;;;;;;5.55;5.05;;;4.40;99.90;;;;;;5078357;28;20035;-66
2021/01/31 01:27:45;;;;;;;5.43;5.03;;;4.40;99.90;;;;;;5085105;28;20067;-67
2021/01/31 01:30:15;;;;;;;5.47;4.97;;;4.40;99.90;;;;;;5074591;28;20474;-67
2021/01/31 01:32:41;;;;;;;5.80;5.40;;;4.40;99.90;;;;;;5074030;28;20028;-67
2021/01/31 01:35:08;;;;;;;6.50;5.90;;;4.50;99.90;;;;;;5074153;28;20028;-67
2021/01/31 01:37:34;;;;;;;6.13;5.63;;;4.50;99.90;;;;;;5074149;28;20549;-68
2021/01/31 01:40:00;;;;;;;6.13;5.60;;;4.50;99.90;;;;;;5074517;28;20470;-67
2021/01/31 01:42:26;;;;;;;5.97;5.45;;;4.40;99.90;;;;;;5054395;28;20025;-66
2021/01/31 01:44:51;;;;;;;5.25;4.75;;;4.50;99.90;;;;;;5053796;28;20036;-65
2021/01/31 01:47:21;;;;;;;5.47;5.00;;;4.40;99.90;;;;;;5054256;28;20017;-67
2021/01/31 01:49:49;;;;;;;5.20;4.80;;;4.30;99.90;;;;;;5054823;28;20023;-65
2021/01/31 01:52:25;;;;;;;4.80;4.40;;;4.30;99.90;;;;;;5055286;28;20062;-68
2021/01/31 01:54:55;;;;;;;6.20;4.22;;;4.30;99.90;;;;;;5054634;28;20021;-67
2021/01/31 01:57:29;;;;;;;4.80;4.40;;;4.30;99.90;;;;;;5054255;28;20183;-68
2021/01/31 01:59:56;;;;;;;5.07;4.65;;;4.20;99.90;;;;;;5054152;28;20095;-68
2021/01/31 02:02:50;;;;;;;5.07;4.68;;;4.20;99.90;;;;;;5054690;28;20025;-67
2021/01/31 02:05:16;;;;;;;5.65;5.10;;;4.30;99.90;;;;;;5054485;28;20040;-67
2021/01/31 02:07:45;;;;;;;4.78;4.43;;;4.20;99.90;;;;;;5054395;28;20031;-66
2021/01/31 02:10:15;;;;;;;4.20;3.90;;;4.20;99.90;;;;;;5056087;28;20021;-66
2021/01/31 02:12:41;;;;;;;5.30;4.80;;;4.20;99.90;;;;;;5064614;28;20024;-68
2021/01/31 02:15:08;;;;;;;4.47;4.13;;;4.20;99.90;;;;;;5073960;28;20070;-66
2021/01/31 02:17:43;;;;;;;4.80;4.20;;;4.20;99.90;;;;;;5073963;28;20390;-66
2021/01/31 02:20:26;;;;;;;5.38;4.88;;;4.20;99.90;;;;;;5072797;28;20470;-65
2021/01/31 02:23:13;;;;;;;5.30;4.80;;;4.30;99.90;;;;;;5073696;28;20028;-66
2021/01/31 02:25:52;;;;;;;5.00;4.60;;;4.30;99.90;;;;;;5073646;28;20063;-65
2021/01/31 02:28:33;;;;;;;4.63;4.32;;;4.20;99.90;;;;;;5073785;28;20565;-66
2021/01/31 02:31:20;;;;;;;5.40;4.90;;;4.20;99.90;;;;;;5073349;28;20504;-66
2021/01/31 02:33:49;;;;;;;5.93;5.43;;;4.30;99.90;;;;;;5072792;28;20024;-65
2021/01/31 02:36:29;;;;;;;6.32;5.72;;;4.30;99.90;;;;;;5073221;28;20021;-66
2021/01/31 02:39:07;;;;;;;7.00;6.30;;;4.40;99.90;;;;;;5073676;28;20028;-66
2021/01/31 02:41:49;;;;;;;6.20;5.65;;;4.30;99.90;;;;;;5073489;28;20028;-66
2021/01/31 02:44:22;;;;;;;7.20;6.50;;;4.30;99.90;;;;;;5072667;28;20028;-66
2021/01/31 02:46:55;;;;;;;7.55;6.85;;;4.30;99.90;;;;;;5072865;28;20479;-66
2021/01/31 02:49:32;;;;;;;8.23;7.32;;;4.30;99.90;;;;;;5073386;28;20072;-67
2021/01/31 02:52:36;;;;;;;9.25;8.35;;;4.20;99.90;;;;;;5072773;28;20036;-66
2021/01/31 02:55:04;;;;;;;8.80;7.55;;;4.20;99.90;;;;;;5069646;28;20558;-66
2021/01/31 02:57:45;;;;;;;9.90;8.65;;;4.30;99.90;;;;;;5073029;28;20494;-66
2021/01/31 03:00:22;;;;;;;10.45;8.63;;;4.30;99.90;;;;;;5072803;28;20032;-66
2021/01/31 03:03:07;;;;;;;9.18;7.68;;;4.30;99.90;;;;;;5072603;28;20032;-67
2021/01/31 03:05:38;;;;;;;8.75;7.88;;;4.10;99.90;;;;;;5072796;28;20032;-66
2021/01/31 03:08:25;;;;;;;9.95;8.45;;;4.10;99.90;;;;;;5073062;28;20066;-66
2021/01/31 03:11:26;;;;;;;9.13;8.23;;;4.10;99.90;;;;;;5072196;28;20060;-67
2021/01/31 03:13:53;;;;;;;12.00;9.18;;;4.20;99.90;;;;;;5050048;28;20041;-66
2021/01/31 03:16:51;;;;;;;16.20;12.10;;;4.20;99.90;;;;;;5052993;28;20432;-66
2021/01/31 03:19:40;;;;;;;15.50;11.55;;;4.30;99.90;;;;;;5047597;28;20033;-66
2021/01/31 03:22:13;;;;;;;14.98;11.50;;;4.30;99.90;;;;;;5052686;28;20058;-67
2021/01/31 03:25:02;;;;;;;14.82;12.70;;;4.30;99.90;;;;;;5052161;28;20025;-67
2021/01/31 03:27:34;;;;;;;15.63;12.60;;;4.00;99.90;;;;;;5052840;28;20032;-66
2021/01/31 03:29:59;;;;;;;;;;;4.00;99.90;;;;;;5053054;28;20028;-66
2021/01/31 03:32:30;;;;;;;15.45;11.15;;;4.00;99.90;;;;;;5053141;28;19923;-67
2021/01/31 03:35:09;;;;;;;11.90;10.65;;;4.00;99.90;;;;;;5052271;28;20399;-67
2021/01/31 03:37:41;;;;;;;14.82;10.88;;;4.00;99.90;;;;;;5052730;28;20021;-67
2021/01/31 03:40:09;;;;;;;13.10;10.55;;;3.90;99.90;;;;;;5065785;28;20481;-66
2021/01/31 03:42:35;;;;;;;15.00;12.70;;;3.90;99.90;;;;;;5072175;28;20041;-66
2021/01/31 03:45:06;;;;;;;14.82;11.93;;;3.90;99.90;;;;;;5071948;28;20032;-66
2021/01/31 03:47:39;;;;;;;13.40;11.02;;;3.90;99.90;;;;;;5071957;28;20024;-66
2021/01/31 03:50:05;;;;;;;12.52;10.27;;;3.70;99.90;;;;;;5058401;28;20036;-66
2021/01/31 03:52:31;;;;;;;13.38;10.05;;;3.70;99.90;;;;;;5052207;28;20110;-66
2021/01/31 03:54:58;;;;;;;13.45;11.00;;;3.70;99.90;;;;;;5055409;28;20049;-67
2021/01/31 03:57:31;;;;;;;13.68;11.10;;;3.70;99.90;;;;;;5061721;28;20121;-66
2021/01/31 04:00:03;;;;;;;11.65;9.98;;;3.70;99.90;;;;;;5052455;28;20052;-66
2021/01/31 04:02:36;;;;;;;10.75;9.52;;;3.70;99.90;;;;;;5052508;28;20100;-67
2021/01/31 04:05:03;;;;;;;14.25;10.77;;;3.90;99.90;;;;;;5052527;28;20399;-67
2021/01/31 04:07:33;;;;;;;11.68;10.02;;;3.80;99.90;;;;;;5050651;28;20020;-67
2021/01/31 04:10:01;;;;;;;11.90;10.15;;;3.70;99.90;;;;;;5052420;28;20031;-66
2021/01/31 04:12:31;;;;;;;11.85;10.10;;;3.70;99.90;;;;;;5051765;28;20021;-67
2021/01/31 04:15:00;;;;;;;12.00;9.70;;;3.80;99.90;;;;;;5051531;28;20112;-65
2021/01/31 04:17:26;;;;;;;11.55;9.73;;;3.70;99.90;;;;;;5051971;28;20044;-67
2021/01/31 04:19:52;;;;;;;12.55;10.52;;;3.70;99.90;;;;;;5051965;28;20052;-67
2021/01/31 04:22:17;;;;;;;13.48;11.68;;;3.70;99.90;;;;;;5051697;28;20037;-66
2021/01/31 04:24:43;;;;;;;13.00;10.75;;;3.70;99.90;;;;;;5051467;28;20052;-67
2021/01/31 04:27:09;;;;;;;12.85;10.77;;;3.80;99.90;;;;;;5052128;28;20039;-67
2021/01/31 04:29:35;;;;;;;13.18;10.82;;;3.70;99.90;;;;;;5050440;28;20029;-67
2021/01/31 04:32:02;;;;;;;14.65;11.73;;;3.70;99.90;;;;;;5051838;28;20033;-67
2021/01/31 04:34:28;;;;;;;14.35;11.15;;;3.80;99.90;;;;;;5051411;28;20025;-67
2021/01/31 04:36:53;;;;;;;13.60;11.20;;;3.70;99.90;;;;;;5051469;28;20024;-66
2021/01/31 04:39:19;;;;;;;13.70;11.10;;;3.70;99.90;;;;;;5051862;28;20060;-66
2021/01/31 04:41:45;;;;;;;14.05;11.43;;;3.80;99.90;;;;;;5054022;28;20020;-68
2021/01/31 04:44:16;;;;;;;15.30;11.88;;;3.90;99.90;;;;;;5072044;28;20070;-67
2021/01/31 04:46:51;;;;;;;13.65;11.55;;;3.80;99.90;;;;;;5074345;28;20522;-67
2021/01/31 04:49:42;;;;;;;14.38;11.40;;;3.80;99.90;;;;;;5071535;28;20032;-67
2021/01/31 04:52:32;;;;;;;13.30;10.90;;;3.70;99.90;;;;;;5071227;28;20067;-67
2021/01/31 04:55:19;;;;;;;16.42;11.55;;;3.70;99.90;;;;;;5070964;28;20486;-67
2021/01/31 04:58:23;;;;;;;16.05;11.68;;;3.80;99.90;;;;;;5071753;28;20021;-66
2021/01/31 05:01:04;;;;;;;15.73;12.23;;;3.70;99.90;;;;;;5074739;28;20078;-67
2021/01/31 05:03:33;;;;;;;15.80;12.20;;;3.70;99.90;;;;;;5074877;28;20099;-67
2021/01/31 05:06:07;;;;;;;17.23;11.45;;;3.60;99.90;;;;;;5075020;28;20025;-67
2021/01/31 05:08:33;;;;;;;16.17;13.18;;;3.60;99.90;;;;;;5055424;28;20078;-67
2021/01/31 05:11:14;;;;;;;16.58;12.70;;;3.60;99.90;;;;;;5055332;28;20029;-69
2021/01/31 05:14:09;;;;;;;18.90;14.07;;;3.60;99.90;;;;;;5073830;28;20029;-66
2021/01/31 05:16:35;;;;;;;20.35;14.60;;;3.50;99.90;;;;;;5075260;28;20112;-67
2021/01/31 05:19:11;;;;;;;20.27;15.50;;;3.60;99.90;;;;;;5074165;28;20127;-67
2021/01/31 05:21:36;;;;;;;19.55;15.23;;;3.60;99.90;;;;;;5074837;28;20036;-69
2021/01/31 05:24:08;;;;;;;18.95;15.18;;;3.60;99.90;;;;;;5074020;28;20466;-67
2021/01/31 05:26:39;;;;;;;23.17;15.93;;;3.50;99.90;;;;;;5074740;28;20025;-68
2021/01/31 05:29:12;;;;;;;21.58;15.57;;;3.60;99.90;;;;;;5075279;28;20035;-66
2021/01/31 05:31:40;;;;;;;22.05;16.05;;;3.60;99.90;;;;;;5075096;28;20157;-66
2021/01/31 05:34:06;;;;;;;25.45;16.52;;;3.60;99.90;;;;;;5074590;28;20797;-67
2021/01/31 05:36:33;;;;;;;21.70;16.00;;;3.60;99.90;;;;;;5074759;28;20052;-66
2021/01/31 05:38:59;;;;;;;23.85;16.67;;;3.70;99.90;;;;;;5074592;28;20031;-66
2021/01/31 05:41:37;;;;;;;20.40;15.27;;;3.50;99.90;;;;;;5074606;28;20142;-66
2021/01/31 05:44:14;;;;;;;21.00;15.48;;;3.60;99.90;;;;;;5074558;28;20570;-66
2021/01/31 05:46:45;;;;;;;19.98;14.93;;;3.60;99.90;;;;;;5075078;28;20040;-66
2021/01/31 05:49:29;;;;;;;22.60;16.20;;;3.70;99.90;;;;;;5076283;28;20475;-66
2021/01/31 05:51:56;;;;;;;22.80;16.38;;;3.60;99.90;;;;;;5078416;28;20020;-67
2021/01/31 05:54:29;;;;;;;22.77;16.00;;;3.60;99.90;;;;;;5076642;28;20029;-67
2021/01/31 05:56:56;;;;;;;23.25;16.00;;;3.50;99.90;;;;;;5078529;28;20024;-67
2021/01/31 05:59:22;;;;;;;22.08;16.52;;;3.50;99.90;;;;;;5077936;28;20099;-68
2021/01/31 06:01:51;;;;;;;25.42;17.58;;;3.50;99.90;;;;;;5056680;28;20082;-66
2021/01/31 06:04:17;;;;;;;24.95;16.95;;;3.60;99.90;;;;;;5053937;28;20070;-73
2021/01/31 06:06:44;;;;;;;25.25;17.13;;;3.60;99.90;;;;;;5053152;28;20032;-74
2021/01/31 06:09:21;;;;;;;26.45;17.75;;;3.50;99.90;;;;;;5072936;28;20529;-75
2021/01/31 06:11:48;;;;;;;25.10;17.77;;;3.40;99.90;;;;;;5074749;23;20091;-67
2021/01/31 06:14:13;;;;;;;25.48;16.48;;;3.40;99.90;;;;;;5048207;28;20031;-67
2021/01/31 06:16:41;;;;;;;24.88;18.02;;;3.40;99.90;;;;;;5050843;28;20025;-67
2021/01/31 06:19:09;;;;;;;23.60;16.92;;;3.40;99.90;;;;;;5051449;28;20028;-67
2021/01/31 06:21:46;;;;;;;26.42;17.15;;;3.50;99.90;;;;;;5051728;28;20033;-67
2021/01/31 06:24:41;;;;;;;24.02;17.08;;;3.50;99.90;;;;;;5050927;28;20052;-67
2021/01/31 06:27:11;;;;;;;27.00;16.88;;;3.50;99.90;;;;;;5053462;28;20411;-68
2021/01/31 06:30:07;;;;;;;27.88;17.92;;;3.50;99.90;;;;;;5048759;28;20067;-67
2021/01/31 06:32:34;;;;;;;23.35;16.55;;;3.50;99.90;;;;;;5046678;28;20098;-68
2021/01/31 06:35:06;;;;;;;21.98;14.77;;;3.40;99.90;;;;;;5051445;28;20028;-67
2021/01/31 06:37:50;;;;;;;23.63;15.60;;;3.40;99.90;;;;;;5033714;28;20021;-66
2021/01/31 06:40:44;;;;;;;25.73;16.55;;;3.50;99.90;;;;;;5033402;28;20029;-67
2021/01/31 06:43:47;;;;;;;24.80;16.42;;;3.40;99.90;;;;;;5046033;28;20108;-67
2021/01/31 06:46:32;;;;;;;26.17;17.17;;;3.40;99.90;;;;;;5052479;28;20025;-67
2021/01/31 06:49:35;;;;;;;26.38;16.58;;;3.50;99.90;;;;;;5052107;28;20029;-66
2021/01/31 06:52:47;;;;;;;29.20;17.75;;;3.40;99.90;;;;;;5051682;28;20475;-68
2021/01/31 06:55:40;;;;;;;27.08;16.30;;;3.50;99.90;;;;;;5016144;28;20039;-67
2021/01/31 06:58:26;;;;;;;28.08;17.55;;;3.50;99.90;;;;;;5050605;28;20773;-67
2021/01/31 07:01:19;;;;;;;32.42;19.23;;;3.50;99.90;;;;;;5051963;28;20032;-68
2021/01/31 07:04:06;;;;;;;33.42;19.55;;;3.60;99.90;;;;;;5050719;28;20029;-70
2021/01/31 07:07:11;;;;;;;35.35;19.25;;;3.60;99.90;;;;;;5051961;28;20108;-70
2021/01/31 07:10:03;;;;;;;27.08;17.15;;;3.70;99.90;;;;;;5040005;28;20510;-69
2021/01/31 07:13:00;;;;;;;32.25;19.13;;;3.70;99.90;;;;;;5050751;28;20033;-69
2021/01/31 07:15:39;;;;;;;30.88;18.40;;;3.70;99.90;;;;;;5047782;28;20463;-69
2021/01/31 07:18:11;;;;;;;28.30;17.55;;;3.80;99.90;;;;;;5033704;28;20021;-69
2021/01/31 07:20:48;;;;;;;31.30;19.02;;;3.80;99.90;;;;;;5029961;28;20021;-70
2021/01/31 07:23:35;;;;;;;27.45;17.80;;;3.70;99.90;;;;;;5041525;28;20029;-77
2021/01/31 07:26:26;;;;;;;28.25;17.73;;;3.80;99.90;;;;;;5051767;28;20406;-76
2021/01/31 07:28:56;;;;;;;38.72;21.70;;;3.90;99.90;;;;;;5050885;28;20086;-75
2021/01/31 07:31:35;;;;;;;31.67;19.05;;;3.70;99.90;;;;;;5050156;28;20029;-70
2021/01/31 07:34:14;;;;;;;35.50;21.52;;;3.80;99.90;;;;;;5050273;28;20025;-68
2021/01/31 07:37:02;;;;;;;32.13;19.55;;;3.80;99.90;;;;;;5051206;28;20032;-70
2021/01/31 07:39:54;;;;;;;29.52;19.30;;;3.80;99.90;;;;;;5031170;28;20152;-69
2021/01/31 07:42:21;;;;;;;40.08;20.65;;;3.90;99.90;;;;;;5038853;28;20060;-71
2021/01/31 07:44:53;;;;;;;33.22;19.70;;;4.00;99.90;;;;;;5050398;28;20040;-70
2021/01/31 07:47:21;;;;;;;;;;;4.10;99.90;;;;;;5051493;28;20029;-71
2021/01/31 07:49:56;;;;;;;28.60;17.60;;;4.10;99.90;;;;;;5050003;28;20039;-70
2021/01/31 07:52:43;;;;;;;31.50;19.30;;;4.10;99.90;;;;;;5050741;28;20052;-69
2021/01/31 07:55:09;;;;;;;27.35;17.13;;;4.10;99.90;;;;;;5050903;28;20045;-68
2021/01/31 07:57:37;;;;;;;27.30;17.17;;;4.10;99.90;;;;;;5048288;28;20094;-68
2021/01/31 08:00:18;;;;;;;27.20;18.17;;;4.00;99.90;;;;;;5050506;28;20396;-67
2021/01/31 08:02:49;;;;;;;25.10;16.55;;;4.00;99.90;;;;;;5049973;28;20143;-68
2021/01/31 08:05:54;;;;;;;26.23;16.80;;;4.00;99.90;;;;;;5050776;28;20485;-69
2021/01/31 08:08:56;;;;;;;28.50;17.00;;;4.00;99.90;;;;;;5049564;28;20606;-69
2021/01/31 08:11:28;;;;;;;26.60;16.73;;;3.90;99.90;;;;;;5050748;28;20025;-68
2021/01/31 08:13:54;;;;;;;29.03;17.00;;;4.00;99.90;;;;;;5050606;28;20517;-72
2021/01/31 08:16:47;;;;;;;25.45;16.13;;;4.00;99.90;;;;;;5050631;28;20550;-69
2021/01/31 08:19:18;;;;;;;31.85;18.65;;;4.00;99.90;;;;;;5049886;28;20025;-70
2021/01/31 08:21:58;;;;;;;25.23;17.43;;;4.10;99.90;;;;;;5050835;28;20028;-69
2021/01/31 08:25:01;;;;;;;30.08;17.98;;;4.10;99.90;;;;;;5049747;28;20108;-68
2021/01/31 08:27:38;;;;;;;26.90;17.08;;;4.10;99.90;;;;;;5030532;28;20029;-72
2021/01/31 08:30:27;;;;;;;24.58;15.82;;;4.20;99.90;;;;;;5032354;28;20123;-71
2021/01/31 08:32:59;;;;;;;26.20;17.77;;;4.30;99.90;;;;;;5046896;28;20029;-75
2021/01/31 08:35:42;;;;;;;23.30;16.25;;;4.30;99.90;;;;;;5049787;28;20538;-72
2021/01/31 08:38:33;;;;;;;26.42;17.33;;;4.40;99.90;;;;;;5047709;28;20103;-74
2021/01/31 08:41:01;;;;;;;26.40;16.80;;;4.40;99.90;;;;;;5050326;28;20478;-74
2021/01/31 08:43:27;;;;;;;24.13;16.83;;;4.50;99.90;;;;;;5049781;28;20467;-74
2021/01/31 08:45:53;;;;;;;26.15;17.60;;;4.60;99.90;;;;;;5051069;28;20031;-74
2021/01/31 08:48:26;;;;;;;23.65;15.80;;;4.70;99.90;;;;;;5051621;28;20132;-75
2021/01/31 08:51:24;;;;;;;20.92;14.85;;;4.70;99.90;;;;;;5051995;28;20032;-74
2021/01/31 08:54:16;;;;;;;19.15;13.82;;;4.90;99.90;;;;;;5052486;28;20021;-75
2021/01/31 08:56:54;;;;;;;20.48;14.40;;;4.90;99.90;;;;;;5053290;28;20414;-75
2021/01/31 08:59:33;;;;;;;20.83;14.07;;;5.00;99.90;;;;;;5052179;28;20054;-74
2021/01/31 09:02:18;;;;;;;18.30;14.13;;;5.00;99.90;;;;;;5049890;28;20437;-76
2021/01/31 09:04:50;;;;;;;18.05;13.82;;;5.00;99.90;;;;;;5049308;28;20033;-75
2021/01/31 09:07:24;;;;;;;17.40;14.48;;;5.00;99.90;;;;;;5050432;28;20471;-76
2021/01/31 09:09:58;;;;;;;16.40;12.68;;;5.00;99.90;;;;;;5049767;28;20455;-75
2021/01/31 09:12:25;;;;;;;17.05;13.48;;;5.00;99.90;;;;;;5048380;28;20025;-76
2021/01/31 09:14:53;;;;;;;14.82;12.05;;;4.90;99.90;;;;;;5049079;28;20119;-75
2021/01/31 09:17:26;;;;;;;15.15;12.07;;;5.00;99.90;;;;;;5049363;28;20074;-74
2021/01/31 09:20:19;;;;;;;16.08;13.07;;;5.10;99.90;;;;;;5048435;28;20507;-74
2021/01/31 09:22:48;;;;;;;14.50;12.23;;;5.00;99.90;;;;;;5048958;28;20029;-73
2021/01/31 09:25:17;;;;;;;16.90;13.52;;;5.00;99.90;;;;;;5048893;28;20128;-74
2021/01/31 09:28:04;;;;;;;17.17;12.13;;;5.00;99.90;;;;;;5048366;28;20897;-75
2021/01/31 09:30:32;;;;;;;16.90;12.80;;;5.10;99.90;;;;;;5049128;28;20044;-75
2021/01/31 09:33:10;;;;;;;14.57;11.35;;;5.00;99.90;;;;;;5048670;28;20014;-73
2021/01/31 09:35:38;;;;;;;17.55;12.45;;;5.10;99.90;;;;;;5049648;28;20024;-73
2021/01/31 09:38:15;;;;;;;15.02;11.90;;;5.20;99.90;;;;;;5049743;28;20025;-73
2021/01/31 09:40:42;;;;;;;14.30;11.45;;;5.10;99.90;;;;;;5049248;28;20364;-73
2021/01/31 09:43:13;;;;;;;20.50;15.88;;;5.10;99.90;;;;;;5048531;28;20017;-73
2021/01/31 09:45:43;;;;;;;15.38;12.48;;;5.20;99.90;;;;;;5052782;28;20040;-73
2021/01/31 09:48:14;;;;;;;18.10;14.18;;;5.30;99.90;;;;;;5053686;28;20017;-70
2021/01/31 09:50:42;;;;;;;15.60;12.15;;;5.30;99.90;;;;;;5053200;28;20033;-71
2021/01/31 09:53:25;;;;;;;14.48;12.00;;;5.20;99.90;;;;;;5050674;28;20107;-72
2021/01/31 09:55:51;;;;;;;14.88;11.73;;;5.30;99.90;;;;;;5053236;28;20029;-72
2021/01/31 09:58:26;;;;;;;14.32;11.15;;;5.30;99.90;;;;;;5052801;28;20039;-69
2021/01/31 10:00:53;;;;;;;15.63;12.35;;;5.30;99.90;;;;;;5052804;28;20044;-69
2021/01/31 10:03:24;;;;;;;14.55;12.27;;;5.30;99.90;;;;;;5052208;28;20607;-69
2021/01/31 10:06:02;;;;;;;14.80;12.63;;;5.20;99.90;;;;;;5052444;28;20075;-69
2021/01/31 10:08:28;;;;;;;15.38;11.82;;;5.40;99.90;;;;;;5051015;28;20441;-69
2021/01/31 10:10:53;;;;;;;13.68;10.98;;;5.50;99.90;;;;;;5050061;28;20025;-69
2021/01/31 10:13:27;;;;;;;13.60;11.70;;;5.50;99.90;;;;;;5043673;28;20029;-69
2021/01/31 10:16:03;;;;;;;12.02;10.77;;;5.40;99.90;;;;;;5032606;28;20022;-69
2021/01/31 10:18:36;;;;;;;14.35;12.10;;;5.30;99.90;;;;;;5032130;28;20060;-69
2021/01/31 10:21:30;;;;;;;15.40;11.60;;;5.40;99.90;;;;;;5030398;28;20029;-69
2021/01/31 10:24:17;;;;;;;11.88;10.25;;;5.40;99.90;;;;;;5033546;28;20025;-69
2021/01/31 10:26:46;;;;;;;13.38;10.57;;;5.40;99.90;;;;;;5051846;28;20505;-69
2021/01/31 10:29:27;;;;;;;14.40;10.85;;;5.50;99.90;;;;;;5053800;28;20021;-69
2021/01/31 10:31:53;;;;;;;11.98;10.15;;;5.60;99.90;;;;;;5057075;28;20029;-69
2021/01/31 10:34:38;;;;;;;13.57;11.13;;;5.50;99.90;;;;;;5056603;28;20035;-69
2021/01/31 10:37:14;;;;;;;17.33;14.40;;;5.60;99.90;;;;;;5051677;28;20471;-69
2021/01/31 10:39:40;;;;;;;13.05;10.68;;;5.70;99.90;;;;;;5054391;28;20104;-69
2021/01/31 10:42:06;;;;;;;14.85;11.88;;;6.00;99.90;;;;;;5054690;28;20064;-69
2021/01/31 10:44:32;;;;;;;13.07;11.50;;;6.00;99.90;;;;;;5052949;28;20040;-69
2021/01/31 10:46:58;;;;;;;13.25;11.85;;;6.20;99.90;;;;;;5051031;28;20078;-69
2021/01/31 10:49:24;;;;;;;14.57;12.40;;;6.40;99.90;;;;;;5051639;28;20394;-69
2021/01/31 10:51:50;;;;;;;13.80;11.52;;;6.80;99.90;;;;;;5052198;28;20025;-69
2021/01/31 10:54:17;;;;;;;13.73;11.02;;;6.80;99.90;;;;;;5051556;28;20024;-69
2021/01/31 10:56:43;;;;;;;12.68;11.38;;;6.70;99.90;;;;;;5051693;28;20041;-69
2021/01/31 10:59:08;;;;;;;13.00;11.27;;;6.50;99.90;;;;;;5051410;28;20060;-72
2021/01/31 11:01:34;;;;;;;15.52;12.13;;;6.30;99.90;;;;;;5052075;28;20033;-72
2021/01/31 11:04:00;;;;;;;12.98;10.13;;;6.20;99.90;;;;;;5051986;28;20025;-73
2021/01/31 11:06:27;;;;;;;14.00;12.30;;;6.20;99.90;;;;;;5052011;28;20376;-73
2021/01/31 11:08:53;;;;;;;17.00;12.93;;;6.30;99.90;;;;;;5053081;28;20021;-72
2021/01/31 11:11:19;;;;;;;17.85;14.32;;;6.20;99.90;;;;;;5051249;28;20024;-70
2021/01/31 11:13:46;;;;;;;22.50;17.40;;;6.30;99.90;;;;;;5051338;28;20483;-68
2021/01/31 11:16:11;;;;;;;15.13;12.27;;;6.50;99.90;;;;;;5050011;28;20403;-68
2021/01/31 11:18:37;;;;;;;12.52;10.90;;;6.50;99.90;;;;;;5051350;28;20025;-69
2021/01/31 11:21:03;;;;;;;14.52;11.70;;;6.30;99.90;;;;;;5050806;28;20032;-70
2021/01/31 11:23:29;;;;;;;17.77;12.57;;;6.40;99.90;;;;;;5050131;28;20486;-68
2021/01/31 11:25:54;;;;;;;17.48;14.30;;;6.20;99.90;;;;;;5051151;28;20033;-69
2021/01/31 11:28:20;;;;;;;17.30;12.55;;;6.00;99.90;;;;;;5051521;28;20029;-77
2021/01/31 11:30:46;;;;;;;16.73;12.90;;;6.20;99.90;;;;;;5051388;28;20029;-73
2021/01/31 11:33:13;;;;;;;15.90;12.25;;;6.30;99.90;;;;;;5050919;28;20040;-73
2021/01/31 11:35:39;;;;;;;15.07;11.80;;;6.40;99.90;;;;;;5051633;28;20044;-73
2021/01/31 11:38:08;;;;;;;15.52;11.35;;;6.30;99.90;;;;;;5051652;28;20025;-68
2021/01/31 11:40:34;;;;;;;20.63;15.40;;;6.30;99.90;;;;;;5050744;28;20047;-69
2021/01/31 11:43:00;;;;;;;20.75;17.33;;;6.20;99.90;;;;;;5048913;28;20024;-70
2021/01/31 11:45:27;;;;;;;14.85;11.90;;;6.10;99.90;;;;;;5050782;28;20032;-70
2021/01/31 11:47:53;;;;;;;12.95;10.75;;;6.10;99.90;;;;;;5049599;28;20390;-70
2021/01/31 11:50:19;;;;;;;13.57;11.10;;;6.10;99.90;;;;;;5048859;28;20025;-69
2021/01/31 11:52:46;;;;;;;13.25;10.95;;;6.10;99.90;;;;;;5050024;28;20049;-69
2021/01/31 11:55:12;;;;;;;13.50;10.70;;;6.10;99.90;;;;;;5050573;28;20028;-71
2021/01/31 11:57:38;;;;;;;13.85;10.60;;;6.00;99.90;;;;;;5050274;28;20548;-70
2021/01/31 12:00:06;;;;;;;15.88;11.88;;;6.00;99.90;;;;;;5050359;28;20032;-70
2021/01/31 12:02:33;;;;;;;14.65;12.10;;;6.10;99.90;;;;;;5049823;28;20031;-70
2021/01/31 12:05:00;;;;;;;16.00;12.38;;;6.10;99.90;;;;;;5049598;28;20080;-71
2021/01/31 12:07:25;;;;;;;14.02;11.43;;;6.10;99.90;;;;;;5049371;28;20071;-70
2021/01/31 12:09:51;;;;;;;16.27;12.23;;;6.00;99.90;;;;;;5050315;28;20124;-71
2021/01/31 12:12:17;;;;;;;19.02;11.77;;;6.00;99.90;;;;;;5049703;28;20530;-72
2021/01/31 12:14:42;;;;;;;13.07;11.45;;;5.90;99.90;;;;;;5049206;28;20498;-70
2021/01/31 12:17:08;;;;;;;17.08;13.60;;;6.00;99.90;;;;;;5050127;28;20483;-71
2021/01/31 12:19:35;;;;;;;18.45;13.63;;;6.10;99.90;;;;;;5047524;28;20358;-70
2021/01/31 12:22:01;;;;;;;15.98;12.48;;;6.10;99.90;;;;;;5049851;28;20025;-69
2021/01/31 12:24:26;;;;;;;16.58;13.10;;;6.00;99.90;;;;;;5048925;28;20114;-71
2021/01/31 12:26:52;;;;;;;16.63;12.13;;;6.00;99.90;;;;;;5048911;28;20036;-75
2021/01/31 12:29:18;;;;;;;15.57;11.38;;;6.20;99.90;;;;;;5050740;28;20366;-75
2021/01/31 12:31:44;;;;;;;15.88;12.15;;;6.10;99.90;;;;;;5050947;28;20518;-76
2021/01/31 12:34:10;;;;;;;13.32;11.30;;;6.20;99.90;;;;;;5050942;28;20067;-73
2021/01/31 12:36:36;;;;;;;13.82;11.38;;;6.20;99.90;;;;;;5050065;28;20541;-73
2021/01/31 12:39:03;;;;;;;13.00;10.43;;;6.20;99.90;;;;;;5048535;28;20025;-73
2021/01/31 12:41:29;;;;;;;14.40;11.63;;;6.30;99.90;;;;;;5050024;28;20031;-73
2021/01/31 12:43:55;;;;;;;15.20;12.00;;;6.30;99.90;;;;;;5049707;28;20402;-73
2021/01/31 12:46:21;;;;;;;13.82;11.23;;;6.40;99.90;;;;;;5048611;28;20394;-75
2021/01/31 12:48:46;;;;;;;12.98;10.10;;;6.40;99.90;;;;;;5051120;28;20036;-74
2021/01/31 12:51:12;;;;;;;15.38;11.35;;;6.40;99.90;;;;;;5049692;28;20151;-75
2021/01/31 12:53:38;;;;;;;15.05;11.00;;;6.20;99.90;;;;;;5047705;28;20455;-75
2021/01/31 12:56:04;;;;;;;14.57;11.20;;;6.30;99.90;;;;;;5050003;28;20541;-75
2021/01/31 12:58:29;;;;;;;13.20;10.50;;;6.30;99.90;;;;;;5050097;28;20431;-76
2021/01/31 13:00:57;;;;;;;14.88;11.32;;;6.30;99.90;;;;;;5050106;28;20463;-75
2021/01/31 13:03:23;;;;;;;17.75;12.02;;;6.40;99.90;;;;;;5049997;28;20079;-74
2021/01/31 13:05:48;;;;;;;17.20;12.43;;;6.40;99.90;;;;;;5048862;28;20024;-75
2021/01/31 13:08:14;;;;;;;19.10;12.70;;;6.60;99.90;;;;;;5050128;28;20021;-77
2021/01/31 13:10:39;;;;;;;15.30;11.90;;;6.70;99.90;;;;;;5048935;28;20029;-77
2021/01/31 13:13:05;;;;;;;14.23;11.23;;;6.80;99.90;;;;;;5049420;28;20513;-75